sensor_id;sensor_type;location;lat;lon;timestamp;pressure;altitude;pressure_sealevel;temperature;humidity
78625;BME280;67944;0.000;0.000;2023-11-21T00:01:52;100015.91;;;21.43;41.31
78625;BME280;67944;0.000;0.000;2023-11-21T00:04:17;100005.31;;;21.43;41.33
78625;BME280;67944;0.000;0.000;2023-11-21T00:06:43;100006.31;;;21.42;41.51
78625;BME280;67944;0.000;0.000;2023-11-21T00:09:12;99999.19;;;21.43;41.17
78625;BME280;67944;0.000;0.000;2023-11-21T00:11:38;100002.03;;;21.41;41.30
78625;BME280;67944;0.000;0.000;2023-11-21T00:14:04;100008.34;;;21.40;41.39
78625;BME280;67944;0.000;0.000;2023-11-21T00:16:29;100005.50;;;21.42;41.19
78625;BME280;67944;0.000;0.000;2023-11-21T00:18:56;100011.00;;;21.40;41.30
78625;BME280;67944;0.000;0.000;2023-11-21T00:21:21;100008.34;;;21.40;41.10
78625;BME280;67944;0.000;0.000;2023-11-21T00:23:47;100001.41;;;21.39;41.45
78625;BME280;67944;0.000;0.000;2023-11-21T00:26:12;99997.94;;;21.39;41.09
78625;BME280;67944;0.000;0.000;2023-11-21T00:28:38;99997.13;;;21.38;41.60
78625;BME280;67944;0.000;0.000;2023-11-21T00:31:03;100000.59;;;21.39;41.48
78625;BME280;67944;0.000;0.000;2023-11-21T00:33:29;99994.66;;;21.37;41.30
78625;BME280;67944;0.000;0.000;2023-11-21T00:35:54;99999.16;;;21.36;41.26
78625;BME280;67944;0.000;0.000;2023-11-21T00:38:20;99991.19;;;21.36;41.24
78625;BME280;67944;0.000;0.000;2023-11-21T00:40:46;99993.03;;;21.36;41.43
78625;BME280;67944;0.000;0.000;2023-11-21T00:43:11;99994.03;;;21.35;41.39
78625;BME280;67944;0.000;0.000;2023-11-21T00:45:37;99991.41;;;21.35;41.38
78625;BME280;67944;0.000;0.000;2023-11-21T00:48:02;99992.22;;;21.35;41.39
78625;BME280;67944;0.000;0.000;2023-11-21T00:50:30;99987.94;;;21.34;41.22
78625;BME280;67944;0.000;0.000;2023-11-21T00:52:55;99998.53;;;21.34;41.41
78625;BME280;67944;0.000;0.000;2023-11-21T00:55:21;100001.16;;;21.34;41.22
78625;BME280;67944;0.000;0.000;2023-11-21T00:57:47;99995.88;;;21.34;41.09
78625;BME280;67944;0.000;0.000;2023-11-21T01:00:13;99994.25;;;21.33;41.40
78625;BME280;67944;0.000;0.000;2023-11-21T01:02:45;99989.13;;;21.32;41.59
78625;BME280;67944;0.000;0.000;2023-11-21T01:05:10;99998.72;;;21.33;41.28
78625;BME280;67944;0.000;0.000;2023-11-21T01:07:36;100001.56;;;21.31;41.54
78625;BME280;67944;0.000;0.000;2023-11-21T01:10:03;100000.75;;;21.31;41.26
78625;BME280;67944;0.000;0.000;2023-11-21T01:12:31;100001.56;;;21.31;41.25
78625;BME280;67944;0.000;0.000;2023-11-21T01:14:56;100000.75;;;21.31;41.44
78625;BME280;67944;0.000;0.000;2023-11-21T01:17:25;100001.56;;;21.31;41.56
78625;BME280;67944;0.000;0.000;2023-11-21T01:19:51;100005.84;;;21.32;41.30
78625;BME280;67944;0.000;0.000;2023-11-21T01:22:16;100003.19;;;21.32;41.36
78625;BME280;67944;0.000;0.000;2023-11-21T01:24:43;100011.34;;;21.31;41.55
78625;BME280;67944;0.000;0.000;2023-11-21T01:27:08;100018.47;;;21.30;41.32
78625;BME280;67944;0.000;0.000;2023-11-21T01:29:34;100009.69;;;21.30;41.64
78625;BME280;67944;0.000;0.000;2023-11-21T01:32:02;100005.22;;;21.30;41.26
78625;BME280;67944;0.000;0.000;2023-11-21T01:34:28;100011.53;;;21.29;41.53
78625;BME280;67944;0.000;0.000;2023-11-21T01:36:54;100008.88;;;21.29;41.43
78625;BME280;67944;0.000;0.000;2023-11-21T01:39:19;100001.94;;;21.28;41.58
78625;BME280;67944;0.000;0.000;2023-11-21T01:41:50;100011.91;;;21.26;41.53
78625;BME280;67944;0.000;0.000;2023-11-21T01:44:15;100010.91;;;21.27;41.46
78625;BME280;67944;0.000;0.000;2023-11-21T01:46:42;100004.97;;;21.25;41.70
78625;BME280;67944;0.000;0.000;2023-11-21T01:49:09;100011.91;;;21.26;41.38
78625;BME280;67944;0.000;0.000;2023-11-21T01:51:39;100019.84;;;21.26;41.19
78625;BME280;67944;0.000;0.000;2023-11-21T01:54:06;100012.94;;;21.25;41.73
78625;BME280;67944;0.000;0.000;2023-11-21T01:56:32;100006.81;;;21.25;41.42
78625;BME280;67944;0.000;0.000;2023-11-21T01:58:57;100019.03;;;21.26;41.77
78625;BME280;67944;0.000;0.000;2023-11-21T02:01:23;100017.41;;;21.25;41.43
78625;BME280;67944;0.000;0.000;2023-11-21T02:03:48;100020.06;;;21.25;41.56
78625;BME280;67944;0.000;0.000;2023-11-21T02:06:14;100019.22;;;21.24;41.21
78625;BME280;67944;0.000;0.000;2023-11-21T02:08:40;100016.59;;;21.24;41.21
78625;BME280;67944;0.000;0.000;2023-11-21T02:11:08;100018.41;;;21.24;41.67
78625;BME280;67944;0.000;0.000;2023-11-21T02:13:34;100027.19;;;21.24;41.56
78625;BME280;67944;0.000;0.000;2023-11-21T02:16:01;100029.00;;;21.24;41.66
78625;BME280;67944;0.000;0.000;2023-11-21T02:18:27;100021.88;;;21.24;41.38
78625;BME280;67944;0.000;0.000;2023-11-21T02:20:55;100023.72;;;21.24;41.61
78625;BME280;67944;0.000;0.000;2023-11-21T02:23:20;100026.38;;;21.24;41.34
78625;BME280;67944;0.000;0.000;2023-11-21T02:25:46;100021.06;;;21.24;41.62
78625;BME280;67944;0.000;0.000;2023-11-21T02:28:12;100029.81;;;21.24;41.51
78625;BME280;67944;0.000;0.000;2023-11-21T02:30:40;100028.19;;;21.23;41.66
78625;BME280;67944;0.000;0.000;2023-11-21T02:33:06;100029.81;;;21.24;41.38
78625;BME280;67944;0.000;0.000;2023-11-21T02:35:32;100029.81;;;21.24;41.72
78625;BME280;67944;0.000;0.000;2023-11-21T02:37:57;100026.38;;;21.24;41.85
78625;BME280;67944;0.000;0.000;2023-11-21T02:40:23;100023.53;;;21.25;41.69
78625;BME280;67944;0.000;0.000;2023-11-21T02:42:50;100024.53;;;21.24;41.69
78625;BME280;67944;0.000;0.000;2023-11-21T02:45:16;100026.38;;;21.24;41.78
78625;BME280;67944;0.000;0.000;2023-11-21T02:47:43;100019.22;;;21.24;41.67
78625;BME280;67944;0.000;0.000;2023-11-21T02:50:09;100018.59;;;21.22;41.37
78625;BME280;67944;0.000;0.000;2023-11-21T02:52:35;100019.44;;;21.23;41.32
78625;BME280;67944;0.000;0.000;2023-11-21T02:55:02;100022.06;;;21.23;41.54
78625;BME280;67944;0.000;0.000;2023-11-21T02:57:27;100025.53;;;21.23;41.90
78625;BME280;67944;0.000;0.000;2023-11-21T02:59:53;100021.25;;;21.22;41.69
78625;BME280;67944;0.000;0.000;2023-11-21T03:02:19;100011.72;;;21.21;41.67
78625;BME280;67944;0.000;0.000;2023-11-21T03:04:45;100014.72;;;21.18;41.68
78625;BME280;67944;0.000;0.000;2023-11-21T03:07:10;100014.09;;;21.16;41.52
78625;BME280;67944;0.000;0.000;2023-11-21T03:09:36;100011.81;;;21.13;41.82
78625;BME280;67944;0.000;0.000;2023-11-21T03:12:01;100020.78;;;21.12;42.13
78625;BME280;67944;0.000;0.000;2023-11-21T03:14:27;100016.50;;;21.11;41.84
78625;BME280;67944;0.000;0.000;2023-11-21T03:16:52;100016.06;;;21.07;41.64
78625;BME280;67944;0.000;0.000;2023-11-21T03:19:18;100020.53;;;21.07;42.05
78625;BME280;67944;0.000;0.000;2023-11-21T03:21:43;100021.53;;;21.06;42.09
78625;BME280;67944;0.000;0.000;2023-11-21T03:24:09;100018.06;;;21.05;42.07
78625;BME280;67944;0.000;0.000;2023-11-21T03:26:34;100027.84;;;21.05;42.08
78625;BME280;67944;0.000;0.000;2023-11-21T03:29:00;100030.50;;;21.05;41.94
78625;BME280;67944;0.000;0.000;2023-11-21T03:31:25;100032.50;;;21.03;41.94
78625;BME280;67944;0.000;0.000;2023-11-21T03:33:52;100030.69;;;21.03;41.62
78625;BME280;67944;0.000;0.000;2023-11-21T03:36:19;100027.41;;;21.01;42.03
78625;BME280;67944;0.000;0.000;2023-11-21T03:38:45;100025.78;;;21.00;41.96
78625;BME280;67944;0.000;0.000;2023-11-21T03:41:10;100033.53;;;21.02;42.04
78625;BME280;67944;0.000;0.000;2023-11-21T03:43:37;100038.81;;;21.02;42.32
78625;BME280;67944;0.000;0.000;2023-11-21T03:46:03;100039.63;;;21.02;42.02
78625;BME280;67944;0.000;0.000;2023-11-21T03:48:28;100038.00;;;21.01;42.04
78625;BME280;67944;0.000;0.000;2023-11-21T03:50:54;100037.19;;;21.01;41.65
78625;BME280;67944;0.000;0.000;2023-11-21T03:53:19;100042.47;;;21.01;42.23
78625;BME280;67944;0.000;0.000;2023-11-21T03:55:44;100036.34;;;21.00;41.93
78625;BME280;67944;0.000;0.000;2023-11-21T03:58:10;100039.81;;;21.01;41.74
78625;BME280;67944;0.000;0.000;2023-11-21T04:00:35;100042.47;;;21.01;42.05
78625;BME280;67944;0.000;0.000;2023-11-21T04:03:01;100043.28;;;21.01;42.18
78625;BME280;67944;0.000;0.000;2023-11-21T04:05:26;100044.94;;;21.02;42.35
78625;BME280;67944;0.000;0.000;2023-11-21T04:07:52;100042.09;;;21.04;42.35
78625;BME280;67944;0.000;0.000;2023-11-21T04:10:17;100048.22;;;21.04;42.00
78625;BME280;67944;0.000;0.000;2023-11-21T04:12:43;100044.75;;;21.04;42.06
78625;BME280;67944;0.000;0.000;2023-11-21T04:15:10;100049.81;;;20.99;41.87
78625;BME280;67944;0.000;0.000;2023-11-21T04:17:35;100052.97;;;20.87;41.98
78625;BME280;67944;0.000;0.000;2023-11-21T04:20:03;100053.25;;;20.71;41.99
78625;BME280;67944;0.000;0.000;2023-11-21T04:22:33;100058.63;;;20.57;42.22
78625;BME280;67944;0.000;0.000;2023-11-21T04:24:59;100054.41;;;20.41;42.42
78625;BME280;67944;0.000;0.000;2023-11-21T04:27:24;100052.59;;;20.27;42.07
78625;BME280;67944;0.000;0.000;2023-11-21T04:29:50;100056.72;;;20.14;42.70
78625;BME280;67944;0.000;0.000;2023-11-21T04:32:15;100067.34;;;20.00;43.02
78625;BME280;67944;0.000;0.000;2023-11-21T04:34:41;100067.03;;;19.88;43.04
78625;BME280;67944;0.000;0.000;2023-11-21T04:37:06;100070.94;;;19.77;43.32
78625;BME280;67944;0.000;0.000;2023-11-21T04:39:32;100073.06;;;19.67;42.62
78625;BME280;67944;0.000;0.000;2023-11-21T04:41:57;100071.50;;;19.58;43.27
78625;BME280;67944;0.000;0.000;2023-11-21T04:44:23;100080.34;;;19.50;43.07
78625;BME280;67944;0.000;0.000;2023-11-21T04:46:48;100076.78;;;19.43;43.51
78625;BME280;67944;0.000;0.000;2023-11-21T04:49:14;100074.03;;;19.37;43.80
78625;BME280;67944;0.000;0.000;2023-11-21T04:51:39;100082.47;;;19.32;43.46
78625;BME280;67944;0.000;0.000;2023-11-21T04:54:05;100091.22;;;19.33;44.13
78625;BME280;67944;0.000;0.000;2023-11-21T04:56:31;100081.94;;;19.37;44.51
78625;BME280;67944;0.000;0.000;2023-11-21T04:58:57;100094.44;;;19.43;44.29
78625;BME280;67944;0.000;0.000;2023-11-21T05:01:22;100097.00;;;19.51;44.67
78625;BME280;67944;0.000;0.000;2023-11-21T05:03:48;100091.47;;;19.61;43.77
78625;BME280;67944;0.000;0.000;2023-11-21T05:06:14;100094.03;;;19.69;44.25
78625;BME280;67944;0.000;0.000;2023-11-21T05:08:40;100092.91;;;19.78;44.16
78625;BME280;67944;0.000;0.000;2023-11-21T05:11:06;100103.19;;;19.88;44.26
78625;BME280;67944;0.000;0.000;2023-11-21T05:13:34;100099.25;;;19.98;43.97
78625;BME280;67944;0.000;0.000;2023-11-21T05:15:59;100096.97;;;20.10;43.86
78625;BME280;67944;0.000;0.000;2023-11-21T05:18:25;100101.56;;;20.23;43.88
78625;BME280;67944;0.000;0.000;2023-11-21T05:20:55;100108.66;;;20.37;43.95
78625;BME280;67944;0.000;0.000;2023-11-21T05:23:21;100108.81;;;20.50;44.16
78625;BME280;67944;0.000;0.000;2023-11-21T05:25:46;100112.59;;;20.62;44.09
78625;BME280;67944;0.000;0.000;2023-11-21T05:28:12;100113.13;;;20.72;43.52
78625;BME280;67944;0.000;0.000;2023-11-21T05:30:38;100120.53;;;20.83;43.49
78625;BME280;67944;0.000;0.000;2023-11-21T05:33:06;100126.34;;;20.94;43.32
78625;BME280;67944;0.000;0.000;2023-11-21T05:35:32;100129.66;;;21.02;43.38
78625;BME280;67944;0.000;0.000;2023-11-21T05:37:57;100139.94;;;21.12;43.06
78625;BME280;67944;0.000;0.000;2023-11-21T05:40:23;100146.09;;;21.19;43.11
78625;BME280;67944;0.000;0.000;2023-11-21T05:42:49;100149.44;;;21.28;42.88
78625;BME280;67944;0.000;0.000;2023-11-21T05:45:16;100145.84;;;21.35;42.94
78625;BME280;67944;0.000;0.000;2023-11-21T05:47:45;100148.38;;;21.43;42.79
78625;BME280;67944;0.000;0.000;2023-11-21T05:50:13;100153.50;;;21.51;42.58
78625;BME280;67944;0.000;0.000;2023-11-21T05:52:44;100147.44;;;21.58;42.46
78625;BME280;67944;0.000;0.000;2023-11-21T05:55:10;100150.94;;;21.65;42.71
78625;BME280;67944;0.000;0.000;2023-11-21T05:57:40;100145.66;;;21.71;42.54
78625;BME280;67944;0.000;0.000;2023-11-21T06:00:08;100151.00;;;21.78;42.51
78625;BME280;67944;0.000;0.000;2023-11-21T06:02:41;100158.38;;;21.82;42.24
78625;BME280;67944;0.000;0.000;2023-11-21T06:05:08;100161.06;;;21.89;42.00
78625;BME280;67944;0.000;0.000;2023-11-21T06:07:34;100166.59;;;21.94;41.95
78625;BME280;67944;0.000;0.000;2023-11-21T06:10:01;100165.00;;;22.00;41.99
78625;BME280;67944;0.000;0.000;2023-11-21T06:12:28;100165.47;;;22.03;41.77
78625;BME280;67944;0.000;0.000;2023-11-21T06:14:53;100177.09;;;22.09;41.86
78625;BME280;67944;0.000;0.000;2023-11-21T06:17:19;100175.06;;;22.11;41.63
78625;BME280;67944;0.000;0.000;2023-11-21T06:19:45;100182.03;;;22.18;41.80
78625;BME280;67944;0.000;0.000;2023-11-21T06:22:11;100188.41;;;22.24;41.58
78625;BME280;67944;0.000;0.000;2023-11-21T06:24:36;100193.31;;;22.27;41.42
78625;BME280;67944;0.000;0.000;2023-11-21T06:27:04;100192.91;;;22.30;41.34
78625;BME280;67944;0.000;0.000;2023-11-21T06:29:30;100182.72;;;22.34;41.36
78625;BME280;67944;0.000;0.000;2023-11-21T06:31:55;100192.94;;;22.37;41.19
78625;BME280;67944;0.000;0.000;2023-11-21T06:34:21;100190.50;;;22.42;41.34
78625;BME280;67944;0.000;0.000;2023-11-21T06:36:47;100196.25;;;22.45;41.08
78625;BME280;67944;0.000;0.000;2023-11-21T06:39:12;100197.50;;;22.49;41.06
78625;BME280;67944;0.000;0.000;2023-11-21T06:41:40;100202.19;;;22.54;41.18
78625;BME280;67944;0.000;0.000;2023-11-21T06:44:06;100195.47;;;22.58;41.05
78625;BME280;67944;0.000;0.000;2023-11-21T06:46:31;100208.34;;;22.61;41.12
78625;BME280;67944;0.000;0.000;2023-11-21T06:48:56;100210.41;;;22.66;40.99
78625;BME280;67944;0.000;0.000;2023-11-21T06:51:22;100217.16;;;22.68;40.59
78625;BME280;67944;0.000;0.000;2023-11-21T06:53:47;100220.22;;;22.72;41.06
78625;BME280;67944;0.000;0.000;2023-11-21T06:56:19;100217.75;;;22.77;41.02
78625;BME280;67944;0.000;0.000;2023-11-21T06:58:46;100229.66;;;22.81;40.57
78625;BME280;67944;0.000;0.000;2023-11-21T07:01:13;100233.75;;;22.83;40.95
78625;BME280;67944;0.000;0.000;2023-11-21T07:03:39;100238.66;;;22.86;40.88
78625;BME280;67944;0.000;0.000;2023-11-21T07:06:05;100239.47;;;22.87;40.94
78625;BME280;67944;0.000;0.000;2023-11-21T07:08:30;100236.63;;;22.88;40.24
78625;BME280;67944;0.000;0.000;2023-11-21T07:10:56;100247.88;;;22.90;40.89
78625;BME280;67944;0.000;0.000;2023-11-21T07:13:22;100247.47;;;22.94;40.53
78625;BME280;67944;0.000;0.000;2023-11-21T07:15:48;100255.22;;;22.95;40.47
78625;BME280;67944;0.000;0.000;2023-11-21T07:18:14;100262.97;;;22.97;40.41
78625;BME280;67944;0.000;0.000;2023-11-21T07:20:39;100265.63;;;22.97;40.70
78625;BME280;67944;0.000;0.000;2023-11-21T07:23:05;100266.88;;;23.01;40.10
78625;BME280;67944;0.000;0.000;2023-11-21T07:25:31;100272.81;;;23.03;40.51
78625;BME280;67944;0.000;0.000;2023-11-21T07:27:59;100279.38;;;23.07;40.29
78625;BME280;67944;0.000;0.000;2023-11-21T07:30:24;100276.50;;;23.08;40.24
78625;BME280;67944;0.000;0.000;2023-11-21T07:32:50;100288.38;;;23.12;40.11
78625;BME280;67944;0.000;0.000;2023-11-21T07:35:15;100284.31;;;23.16;39.86
78625;BME280;67944;0.000;0.000;2023-11-21T07:37:41;100283.06;;;23.19;40.10
78625;BME280;67944;0.000;0.000;2023-11-21T07:40:08;100290.63;;;23.22;40.29
78625;BME280;67944;0.000;0.000;2023-11-21T07:42:34;100292.69;;;23.27;40.36
78625;BME280;67944;0.000;0.000;2023-11-21T07:45:00;100297.59;;;23.30;40.29
78625;BME280;67944;0.000;0.000;2023-11-21T07:47:25;100300.69;;;23.33;39.97
78625;BME280;67944;0.000;0.000;2023-11-21T07:49:53;100301.31;;;23.35;39.61
78625;BME280;67944;0.000;0.000;2023-11-21T07:52:21;100298.25;;;23.38;39.58
78625;BME280;67944;0.000;0.000;2023-11-21T07:54:47;100304.34;;;23.39;40.10
78625;BME280;67944;0.000;0.000;2023-11-21T07:57:12;100310.28;;;23.41;40.57
78625;BME280;67944;0.000;0.000;2023-11-21T07:59:39;100309.47;;;23.40;39.76
78625;BME280;67944;0.000;0.000;2023-11-21T08:02:06;100311.09;;;23.41;40.08
78625;BME280;67944;0.000;0.000;2023-11-21T08:04:32;100309.25;;;23.42;40.12
78625;BME280;67944;0.000;0.000;2023-11-21T08:06:57;100323.38;;;23.42;40.54
78625;BME280;67944;0.000;0.000;2023-11-21T08:09:23;100319.91;;;23.42;39.74
78625;BME280;67944;0.000;0.000;2023-11-21T08:11:49;100317.44;;;23.40;39.58
78625;BME280;67944;0.000;0.000;2023-11-21T08:14:15;100328.50;;;23.37;39.35
78625;BME280;67944;0.000;0.000;2023-11-21T08:16:41;100326.25;;;23.34;39.50
78625;BME280;67944;0.000;0.000;2023-11-21T08:19:06;100327.69;;;23.37;39.45
78625;BME280;67944;0.000;0.000;2023-11-21T08:21:33;100333.81;;;23.37;39.83
78625;BME280;67944;0.000;0.000;2023-11-21T08:23:59;100337.06;;;23.39;39.80
78625;BME280;67944;0.000;0.000;2023-11-21T08:26:25;100340.34;;;23.41;39.35
78625;BME280;67944;0.000;0.000;2023-11-21T08:28:51;100340.34;;;23.41;40.15
78625;BME280;67944;0.000;0.000;2023-11-21T08:31:28;100341.97;;;23.42;39.99
78625;BME280;67944;0.000;0.000;2023-11-21T08:33:54;100347.28;;;23.42;40.23
78625;BME280;67944;0.000;0.000;2023-11-21T08:36:21;100349.13;;;23.42;39.54
78625;BME280;67944;0.000;0.000;2023-11-21T08:38:49;100359.56;;;23.43;39.49
78625;BME280;67944;0.000;0.000;2023-11-21T08:41:15;100351.59;;;23.43;40.20
78625;BME280;67944;0.000;0.000;2023-11-21T08:43:41;100355.25;;;23.42;39.95
78625;BME280;67944;0.000;0.000;2023-11-21T08:46:07;100365.50;;;23.45;40.13
78625;BME280;67944;0.000;0.000;2023-11-21T08:48:36;100372.66;;;23.45;40.27
78625;BME280;67944;0.000;0.000;2023-11-21T08:51:02;100372.66;;;23.45;40.48
78625;BME280;67944;0.000;0.000;2023-11-21T08:53:27;100376.75;;;23.47;39.84
78625;BME280;67944;0.000;0.000;2023-11-21T08:55:53;100380.22;;;23.48;39.98
78625;BME280;67944;0.000;0.000;2023-11-21T08:58:19;100374.72;;;23.49;39.46
78625;BME280;67944;0.000;0.000;2023-11-21T09:00:45;100384.34;;;23.50;39.88
78625;BME280;67944;0.000;0.000;2023-11-21T09:03:12;100387.63;;;23.52;40.01
78625;BME280;67944;0.000;0.000;2023-11-21T09:05:38;100399.91;;;23.53;39.70
78625;BME280;67944;0.000;0.000;2023-11-21T09:08:05;100397.06;;;23.55;39.94
78625;BME280;67944;0.000;0.000;2023-11-21T09:10:33;100395.22;;;23.55;40.33
78625;BME280;67944;0.000;0.000;2023-11-21T09:13:01;100401.34;;;23.56;39.56
78625;BME280;67944;0.000;0.000;2023-11-21T09:15:27;100396.84;;;23.56;40.28
78625;BME280;67944;0.000;0.000;2023-11-21T09:17:53;100399.31;;;23.58;40.10
78625;BME280;67944;0.000;0.000;2023-11-21T09:20:18;100400.97;;;23.59;40.00
78625;BME280;67944;0.000;0.000;2023-11-21T09:22:48;100409.75;;;23.60;40.29
78625;BME280;67944;0.000;0.000;2023-11-21T09:25:14;100406.28;;;23.59;39.96
78625;BME280;67944;0.000;0.000;2023-11-21T09:27:40;100412.41;;;23.60;40.27
78625;BME280;67944;0.000;0.000;2023-11-21T09:30:07;100416.91;;;23.59;40.37
78625;BME280;67944;0.000;0.000;2023-11-21T09:32:37;100422.22;;;23.59;40.39
78625;BME280;67944;0.000;0.000;2023-11-21T09:35:04;100422.22;;;23.59;39.92
78625;BME280;67944;0.000;0.000;2023-11-21T09:37:30;100424.88;;;23.59;40.05
78625;BME280;67944;0.000;0.000;2023-11-21T09:39:56;100430.78;;;23.61;40.07
78625;BME280;67944;0.000;0.000;2023-11-21T09:42:36;100439.59;;;23.62;39.93
78625;BME280;67944;0.000;0.000;2023-11-21T09:45:23;100435.28;;;23.61;39.89
78625;BME280;67944;0.000;0.000;2023-11-21T09:47:52;100429.97;;;23.61;39.79
78625;BME280;67944;0.000;0.000;2023-11-21T09:50:20;100431.63;;;23.62;39.63
78625;BME280;67944;0.000;0.000;2023-11-21T09:53:03;100442.25;;;23.62;40.22
78625;BME280;67944;0.000;0.000;2023-11-21T09:55:34;100445.53;;;23.64;40.11
78625;BME280;67944;0.000;0.000;2023-11-21T09:58:03;100453.50;;;23.64;39.97
78625;BME280;67944;0.000;0.000;2023-11-21T10:00:30;100446.78;;;23.68;39.79
78625;BME280;67944;0.000;0.000;2023-11-21T10:02:58;100460.88;;;23.68;39.78
78625;BME280;67944;0.000;0.000;2023-11-21T10:05:24;100455.38;;;23.70;40.42
78625;BME280;67944;0.000;0.000;2023-11-21T10:07:50;100465.19;;;23.69;40.57
78625;BME280;67944;0.000;0.000;2023-11-21T10:10:19;100459.88;;;23.69;39.64
78625;BME280;67944;0.000;0.000;2023-11-21T10:12:49;100466.00;;;23.70;39.87
78625;BME280;67944;0.000;0.000;2023-11-21T10:15:16;100460.69;;;23.70;40.15
78625;BME280;67944;0.000;0.000;2023-11-21T10:17:44;100466.00;;;23.70;40.15
78625;BME280;67944;0.000;0.000;2023-11-21T10:20:10;100459.66;;;23.71;40.33
78625;BME280;67944;0.000;0.000;2023-11-21T10:22:41;100469.28;;;23.72;40.58
78625;BME280;67944;0.000;0.000;2023-11-21T10:25:08;100460.28;;;23.73;39.95
78625;BME280;67944;0.000;0.000;2023-11-21T10:27:37;100462.94;;;23.73;40.11
78625;BME280;67944;0.000;0.000;2023-11-21T10:30:09;100463.78;;;23.73;39.94
78625;BME280;67944;0.000;0.000;2023-11-21T10:32:38;100469.09;;;23.73;40.18
78625;BME280;67944;0.000;0.000;2023-11-21T10:35:07;100474.41;;;23.73;40.03
78625;BME280;67944;0.000;0.000;2023-11-21T10:37:44;100477.88;;;23.74;40.13
78625;BME280;67944;0.000;0.000;2023-11-21T10:40:11;100482.19;;;23.75;39.82
78625;BME280;67944;0.000;0.000;2023-11-21T10:42:38;100479.53;;;23.75;39.90
78625;BME280;67944;0.000;0.000;2023-11-21T10:45:07;100482.38;;;23.73;39.55
78625;BME280;67944;0.000;0.000;2023-11-21T10:47:42;100488.53;;;23.74;39.70
78625;BME280;67944;0.000;0.000;2023-11-21T10:50:09;100480.34;;;23.75;39.63
78625;BME280;67944;0.000;0.000;2023-11-21T10:52:39;100484.03;;;23.74;39.34
78625;BME280;67944;0.000;0.000;2023-11-21T10:55:21;100485.88;;;23.74;39.82
78625;BME280;67944;0.000;0.000;2023-11-21T10:57:58;100490.16;;;23.75;39.84
78625;BME280;67944;0.000;0.000;2023-11-21T11:00:26;100492.00;;;23.74;40.22
78625;BME280;67944;0.000;0.000;2023-11-21T11:02:53;100491.19;;;23.74;39.71
78625;BME280;67944;0.000;0.000;2023-11-21T11:05:23;100493.84;;;23.74;40.00
78625;BME280;67944;0.000;0.000;2023-11-21T11:10:26;100489.75;;;23.71;39.81
78625;BME280;67944;0.000;0.000;2023-11-21T11:12:53;100488.50;;;23.67;39.06
78625;BME280;67944;0.000;0.000;2023-11-21T11:15:20;100482.56;;;23.65;39.50
78625;BME280;67944;0.000;0.000;2023-11-21T11:17:46;100486.44;;;23.63;39.60
78625;BME280;67944;0.000;0.000;2023-11-21T11:20:14;100495.84;;;23.58;39.14
78625;BME280;67944;0.000;0.000;2023-11-21T11:26:09;100490.09;;;23.55;38.92
78625;BME280;67944;0.000;0.000;2023-11-21T11:29:10;100493.59;;;23.55;39.08
78625;BME280;67944;0.000;0.000;2023-11-21T11:32:11;100478.25;;;23.57;38.95
78625;BME280;67944;0.000;0.000;2023-11-21T11:35:04;100477.25;;;23.58;39.15
78625;BME280;67944;0.000;0.000;2023-11-21T11:37:31;100477.63;;;23.62;39.20
78625;BME280;67944;0.000;0.000;2023-11-21T11:39:58;100479.28;;;23.63;39.19
78625;BME280;67944;0.000;0.000;2023-11-21T11:42:26;100485.22;;;23.65;39.54
78625;BME280;67944;0.000;0.000;2023-11-21T11:44:52;100494.63;;;23.68;39.35
78625;BME280;67944;0.000;0.000;2023-11-21T11:50:07;100494.25;;;23.71;38.90
78625;BME280;67944;0.000;0.000;2023-11-21T11:52:38;100489.53;;;23.73;38.74
78625;BME280;67944;0.000;0.000;2023-11-21T11:55:12;100484.84;;;23.75;39.43
78625;BME280;67944;0.000;0.000;2023-11-21T11:57:48;100500.59;;;23.76;39.17
78625;BME280;67944;0.000;0.000;2023-11-21T12:00:17;100502.03;;;23.79;39.34
78625;BME280;67944;0.000;0.000;2023-11-21T12:02:46;100501.03;;;23.80;38.67
78625;BME280;67944;0.000;0.000;2023-11-21T12:05:14;100501.84;;;23.80;39.17
78625;BME280;67944;0.000;0.000;2023-11-21T12:07:53;100503.69;;;23.80;39.18
78625;BME280;67944;0.000;0.000;2023-11-21T12:10:22;100504.50;;;23.80;39.39
78625;BME280;67944;0.000;0.000;2023-11-21T12:15:18;100506.16;;;23.81;39.50
78625;BME280;67944;0.000;0.000;2023-11-21T12:17:45;100506.94;;;23.82;39.52
78625;BME280;67944;0.000;0.000;2023-11-21T12:20:12;100512.88;;;23.84;39.09
78625;BME280;67944;0.000;0.000;2023-11-21T12:25:23;100504.50;;;23.87;39.39
78625;BME280;67944;0.000;0.000;2023-11-21T12:27:50;100511.47;;;23.88;38.97
78625;BME280;67944;0.000;0.000;2023-11-21T12:30:22;100504.31;;;23.88;39.61
78625;BME280;67944;0.000;0.000;2023-11-21T12:32:49;100511.28;;;23.89;39.73
78625;BME280;67944;0.000;0.000;2023-11-21T12:35:21;100507.38;;;23.92;39.46
78625;BME280;67944;0.000;0.000;2023-11-21T12:37:48;100517.63;;;23.95;39.75
78625;BME280;67944;0.000;0.000;2023-11-21T12:40:15;100516.63;;;23.96;39.38
78625;BME280;67944;0.000;0.000;2023-11-21T12:42:42;100517.44;;;23.97;39.19
78625;BME280;67944;0.000;0.000;2023-11-21T12:45:18;100525.22;;;23.98;39.58
78625;BME280;67944;0.000;0.000;2023-11-21T12:47:46;100522.97;;;24.02;39.59
78625;BME280;67944;0.000;0.000;2023-11-21T12:50:12;100529.94;;;24.03;38.78
78625;BME280;67944;0.000;0.000;2023-11-21T12:52:44;100532.38;;;24.04;39.14
78625;BME280;67944;0.000;0.000;2023-11-21T12:55:17;100529.50;;;24.06;39.18
78625;BME280;67944;0.000;0.000;2023-11-21T12:57:48;100532.78;;;24.08;39.02
78625;BME280;67944;0.000;0.000;2023-11-21T13:00:18;100537.91;;;24.09;39.14
78625;BME280;67944;0.000;0.000;2023-11-21T13:02:55;100533.22;;;24.11;39.70
78625;BME280;67944;0.000;0.000;2023-11-21T13:05:35;100534.03;;;24.12;39.56
78625;BME280;67944;0.000;0.000;2023-11-21T13:08:05;100539.16;;;24.13;39.85
78625;BME280;67944;0.000;0.000;2023-11-21T13:10:34;100543.25;;;24.16;39.52
78625;BME280;67944;0.000;0.000;2023-11-21T13:13:03;100546.75;;;24.16;39.71
78625;BME280;67944;0.000;0.000;2023-11-21T13:15:38;100551.03;;;24.17;38.79